createdAt,value
2023-01-20T00:00:17.191Z,21.48
2023-01-20T00:02:43.818Z,21.38
2023-01-20T00:05:10.544Z,18.42
2023-01-20T00:07:37.169Z,16.80
2023-01-20T00:10:04.010Z,20.42
2023-01-20T00:12:32.003Z,17.40
2023-01-20T00:14:58.600Z,18.85
2023-01-20T00:17:25.238Z,17.48
2023-01-20T00:19:51.817Z,23.15
2023-01-20T00:22:18.404Z,19.35
2023-01-20T00:24:44.996Z,21.95
2023-01-20T00:27:11.624Z,18.67
2023-01-20T00:29:38.248Z,21.55
2023-01-20T00:32:04.928Z,21.30
2023-01-20T00:34:31.478Z,20.13
2023-01-20T00:36:58.058Z,18.98
2023-01-20T00:39:24.612Z,16.67
2023-01-20T00:41:51.178Z,19.65
2023-01-20T00:44:17.777Z,20.85
2023-01-20T00:46:44.521Z,18.58
2023-01-20T00:49:11.227Z,19.27
2023-01-20T00:51:37.818Z,17.00
2023-01-20T00:54:04.683Z,15.50
2023-01-20T00:56:31.286Z,20.25
2023-01-20T00:58:57.917Z,18.48
2023-01-20T01:01:24.525Z,20.65
2023-01-20T01:03:54.178Z,13.85
2023-01-20T01:06:21.198Z,13.93
2023-01-20T01:08:47.784Z,18.85
2023-01-20T01:11:14.412Z,16.13
2023-01-20T01:13:41.393Z,20.45
2023-01-20T01:16:15.639Z,18.27
2023-01-20T01:18:42.885Z,18.77
2023-01-20T01:21:11.455Z,19.23
2023-01-20T01:23:38.068Z,25.40
2023-01-20T01:26:04.939Z,18.50
2023-01-20T01:28:32.020Z,14.80
2023-01-20T01:31:03.049Z,17.00
2023-01-20T01:33:30.413Z,15.50
2023-01-20T01:36:01.934Z,18.55
2023-01-20T01:38:29.041Z,15.75
2023-01-20T01:40:56.066Z,17.98
2023-01-20T01:43:26.037Z,18.35
2023-01-20T01:45:52.714Z,19.50
2023-01-20T01:48:23.598Z,21.45
2023-01-20T01:51:08.467Z,19.45
2023-01-20T01:53:40.587Z,17.05
2023-01-20T01:56:07.463Z,20.42
2023-01-20T01:58:36.323Z,20.58
2023-01-20T02:01:03.657Z,21.77
2023-01-20T02:03:38.456Z,21.70
2023-01-20T02:06:05.268Z,16.90
2023-01-20T02:08:32.074Z,20.05
2023-01-20T02:10:58.645Z,17.30
2023-01-20T02:13:25.285Z,20.23
2023-01-20T02:16:02.286Z,22.45
2023-01-20T02:18:39.153Z,21.48
2023-01-20T02:21:15.967Z,19.35
2023-01-20T02:24:12.320Z,21.80
2023-01-20T02:26:57.592Z,18.17
2023-01-20T02:29:42.739Z,20.65
2023-01-20T02:32:13.902Z,21.83
2023-01-20T02:34:54.792Z,22.33
2023-01-20T02:37:37.833Z,22.80
2023-01-20T02:40:14.466Z,21.17
2023-01-20T02:42:45.355Z,24.65
2023-01-20T02:45:18.232Z,24.85
2023-01-20T02:47:56.773Z,22.08
2023-01-20T02:50:27.557Z,22.83
2023-01-20T02:52:56.804Z,23.65
2023-01-20T02:55:32.189Z,18.95
2023-01-20T02:58:04.688Z,26.25
2023-01-20T03:00:35.434Z,23.38
2023-01-20T03:03:03.050Z,23.83
2023-01-20T03:05:31.980Z,23.15
2023-01-20T03:07:59.544Z,26.92
2023-01-20T03:10:27.502Z,19.75
2023-01-20T03:12:57.107Z,26.48
2023-01-20T03:15:30.471Z,23.23
2023-01-20T03:17:57.900Z,23.52
2023-01-20T03:20:24.740Z,25.08
2023-01-20T03:22:51.326Z,24.00
2023-01-20T03:25:19.135Z,25.35
2023-01-20T03:27:45.723Z,25.50
2023-01-20T03:30:13.827Z,26.52
2023-01-20T03:32:42.938Z,23.92
2023-01-20T03:35:09.624Z,26.40
2023-01-20T03:37:36.272Z,25.67
2023-01-20T03:40:03.005Z,26.95
2023-01-20T03:42:31.857Z,26.95
2023-01-20T03:45:08.934Z,28.67
2023-01-20T03:48:00.244Z,29.02
2023-01-20T03:50:37.622Z,30.70
2023-01-20T03:53:19.035Z,31.15
2023-01-20T03:55:50.376Z,30.92
2023-01-20T03:58:20.753Z,30.00
2023-01-20T04:00:49.209Z,31.95
2023-01-20T04:03:19.609Z,28.23
2023-01-20T04:05:46.866Z,30.25
2023-01-20T04:08:14.897Z,33.50
2023-01-20T04:10:43.608Z,31.83
2023-01-20T04:13:10.225Z,29.65
2023-01-20T04:15:40.756Z,30.48
2023-01-20T04:18:12.533Z,30.40
2023-01-20T04:20:39.267Z,33.13
2023-01-20T04:23:06.628Z,27.83
2023-01-20T04:25:33.681Z,29.65
2023-01-20T04:28:00.238Z,28.23
2023-01-20T04:30:26.889Z,33.35
2023-01-20T04:32:53.575Z,30.65
2023-01-20T04:35:20.432Z,31.83
2023-01-20T04:37:47.010Z,33.78
2023-01-20T04:40:13.755Z,31.33
2023-01-20T04:42:40.307Z,35.38
2023-01-20T04:45:07.202Z,31.45
2023-01-20T04:47:34.156Z,27.05
2023-01-20T04:50:00.714Z,31.23
2023-01-20T04:52:27.280Z,30.88
2023-01-20T04:54:53.845Z,31.98
2023-01-20T04:57:20.861Z,30.70
2023-01-20T04:59:47.426Z,27.75
2023-01-20T05:02:14.038Z,28.75
2023-01-20T05:04:40.665Z,28.52
2023-01-20T05:07:07.214Z,27.15
2023-01-20T05:09:33.819Z,29.95
2023-01-20T05:12:00.430Z,28.58
2023-01-20T05:14:26.969Z,30.20
2023-01-20T05:16:53.559Z,36.25
2023-01-20T05:19:20.099Z,34.70
2023-01-20T05:21:46.675Z,32.20
2023-01-20T05:24:13.272Z,31.83
2023-01-20T05:26:39.833Z,27.83
2023-01-20T05:29:06.405Z,29.90
2023-01-20T05:31:33.013Z,33.42
2023-01-20T05:33:59.642Z,28.20
2023-01-20T05:36:28.308Z,31.00
2023-01-20T05:38:55.043Z,37.47
2023-01-20T05:41:21.948Z,29.73
2023-01-20T05:43:48.547Z,28.95
2023-01-20T05:46:15.785Z,35.45
2023-01-20T05:48:42.426Z,35.50
2023-01-20T05:51:08.986Z,31.58
2023-01-20T05:53:35.573Z,32.95
2023-01-20T05:56:04.729Z,35.33
2023-01-20T05:58:31.946Z,33.70
2023-01-20T06:01:06.593Z,31.25
2023-01-20T06:03:33.235Z,34.85
2023-01-20T06:06:04.703Z,36.28
2023-01-20T06:08:31.294Z,30.02
2023-01-20T06:10:58.628Z,29.13
2023-01-20T06:13:25.421Z,32.47
2023-01-20T06:15:56.049Z,38.65
2023-01-20T06:18:23.929Z,35.88
2023-01-20T06:20:50.557Z,32.90
2023-01-20T06:23:17.620Z,33.85
2023-01-20T06:25:44.210Z,37.05
2023-01-20T06:28:11.127Z,33.40
2023-01-20T06:30:38.270Z,31.25
2023-01-20T06:33:10.583Z,35.22
2023-01-20T06:35:37.737Z,42.63
2023-01-20T06:38:04.458Z,38.15
2023-01-20T06:40:31.271Z,41.88
2023-01-20T06:42:58.448Z,40.85
2023-01-20T06:45:25.029Z,36.50
2023-01-20T06:47:51.629Z,46.33
2023-01-20T06:50:18.184Z,42.53
2023-01-20T06:52:44.744Z,40.35
2023-01-20T06:55:11.319Z,41.03
2023-01-20T06:57:37.972Z,37.10
2023-01-20T07:00:05.048Z,40.13
2023-01-20T07:02:31.729Z,43.15
2023-01-20T07:05:00.011Z,40.10
2023-01-20T07:07:27.083Z,41.97
2023-01-20T07:09:56.629Z,42.53
2023-01-20T07:12:23.213Z,44.38
2023-01-20T07:14:49.810Z,40.25
2023-01-20T07:17:16.537Z,41.97
2023-01-20T07:19:43.113Z,41.80
2023-01-20T07:22:09.744Z,47.47
2023-01-20T07:24:36.387Z,36.83
2023-01-20T07:27:02.957Z,42.70
2023-01-20T07:29:32.004Z,41.60
2023-01-20T07:31:58.608Z,41.28
2023-01-20T07:34:25.313Z,45.25
2023-01-20T07:36:53.393Z,43.75
2023-01-20T07:39:20.436Z,39.33
2023-01-20T07:41:50.775Z,44.38
2023-01-20T07:44:17.522Z,43.90
2023-01-20T07:46:44.255Z,47.53
2023-01-20T07:49:12.464Z,44.03
2023-01-20T07:51:39.972Z,41.88
2023-01-20T07:54:06.831Z,43.65
2023-01-20T07:56:33.412Z,40.70
2023-01-20T07:58:59.985Z,37.97
2023-01-20T08:01:29.072Z,37.97
2023-01-20T08:03:56.323Z,41.63
2023-01-20T08:06:24.624Z,39.75
2023-01-20T08:08:52.657Z,39.83
2023-01-20T08:11:21.061Z,43.05
2023-01-20T08:13:48.241Z,37.55
2023-01-20T08:16:17.075Z,38.45
2023-01-20T08:18:43.863Z,37.75
2023-01-20T08:21:18.885Z,42.60
2023-01-20T08:23:45.559Z,41.05
2023-01-20T08:26:12.272Z,38.47
2023-01-20T08:28:38.993Z,36.40
2023-01-20T08:31:11.315Z,39.55
2023-01-20T08:33:38.737Z,39.63
2023-01-20T08:36:11.156Z,42.22
2023-01-20T08:38:38.544Z,43.40
2023-01-20T08:41:13.894Z,38.53
2023-01-20T08:43:40.648Z,35.97
2023-01-20T08:46:11.132Z,41.28
2023-01-20T08:48:38.898Z,40.53
2023-01-20T08:51:08.073Z,42.63
2023-01-20T08:53:34.946Z,42.22
2023-01-20T08:56:02.751Z,38.05
2023-01-20T08:58:29.917Z,36.20
2023-01-20T09:00:57.575Z,39.13
2023-01-20T09:03:24.215Z,41.50
2023-01-20T09:05:52.253Z,41.58
2023-01-20T09:08:20.291Z,40.05
2023-01-20T09:10:47.095Z,36.50
2023-01-20T09:13:13.734Z,38.70
2023-01-20T09:15:40.323Z,37.13
2023-01-20T09:18:07.189Z,35.95
2023-01-20T09:20:34.047Z,36.53
2023-01-20T09:23:03.773Z,36.50
2023-01-20T09:25:30.374Z,38.08
2023-01-20T09:28:00.441Z,30.83
2023-01-20T09:30:27.056Z,42.63
2023-01-20T09:32:56.361Z,38.42
2023-01-20T09:35:22.951Z,38.03
2023-01-20T09:38:08.012Z,34.38
2023-01-20T09:41:18.637Z,33.30
2023-01-20T09:43:54.361Z,36.97
2023-01-20T09:47:12.381Z,29.65
2023-01-20T09:50:36.324Z,35.53
2023-01-20T09:53:30.274Z,34.58
2023-01-20T09:55:58.317Z,33.72
2023-01-20T09:58:37.077Z,31.23
2023-01-20T10:01:07.318Z,36.65
2023-01-20T10:03:40.180Z,38.65
2023-01-20T10:06:14.323Z,33.33
2023-01-20T10:09:04.527Z,35.92
2023-01-20T10:11:38.392Z,35.25
2023-01-20T10:14:21.431Z,37.13
2023-01-20T10:17:09.812Z,31.83
2023-01-20T10:19:46.154Z,32.35
2023-01-20T10:22:22.655Z,35.78
2023-01-20T10:24:53.234Z,39.08
2023-01-20T10:27:19.951Z,32.28
2023-01-20T10:29:49.842Z,35.30
2023-01-20T10:32:25.357Z,37.30
2023-01-20T10:34:56.584Z,29.52
2023-01-20T10:37:23.765Z,31.35
2023-01-20T10:40:14.217Z,34.45
2023-01-20T10:42:41.227Z,33.83
2023-01-20T10:45:22.847Z,38.38
2023-01-20T10:48:15.070Z,35.05
2023-01-20T10:50:55.523Z,33.28
2023-01-20T10:53:30.344Z,28.75
2023-01-20T10:56:09.033Z,30.90
2023-01-20T10:58:36.779Z,30.00
2023-01-20T11:01:10.376Z,34.05
2023-01-20T11:03:40.504Z,29.80
2023-01-20T11:06:07.577Z,34.40
2023-01-20T11:08:34.142Z,30.00
2023-01-20T11:11:10.030Z,31.27
2023-01-20T11:13:36.613Z,29.58
2023-01-20T11:16:07.352Z,30.50
2023-01-20T11:18:33.970Z,28.67
2023-01-20T11:21:14.176Z,30.23
2023-01-20T11:23:45.990Z,30.98
2023-01-20T11:26:21.522Z,31.90
2023-01-20T11:28:59.514Z,34.15
2023-01-20T11:31:48.056Z,30.85
2023-01-20T11:34:21.943Z,37.10
2023-01-20T11:36:49.822Z,33.25
2023-01-20T11:39:49.996Z,27.95
2023-01-20T11:42:30.830Z,28.98
2023-01-20T11:45:21.514Z,32.67
2023-01-20T11:48:01.098Z,33.55
2023-01-20T11:50:33.591Z,29.70
2023-01-20T11:53:18.051Z,38.00
2023-01-20T11:55:53.354Z,34.15
2023-01-20T11:58:22.819Z,32.35
2023-01-20T12:00:51.317Z,33.08
2023-01-20T12:03:17.765Z,26.08
2023-01-20T12:05:54.633Z,28.42
2023-01-20T12:08:27.377Z,27.25
2023-01-20T12:10:55.590Z,24.58
2023-01-20T12:13:28.495Z,32.65
2023-01-20T12:15:56.583Z,27.80
2023-01-20T12:18:39.026Z,25.40
2023-01-20T12:21:11.078Z,27.67
2023-01-20T12:23:55.316Z,27.33
2023-01-20T12:26:23.067Z,31.17
2023-01-20T12:28:57.833Z,35.05
2023-01-20T12:31:24.613Z,25.50
2023-01-20T12:33:53.215Z,28.70
2023-01-20T12:36:38.089Z,25.85
2023-01-20T12:39:23.007Z,27.38
2023-01-20T12:41:56.087Z,31.80
2023-01-20T12:44:41.677Z,31.45
2023-01-20T12:47:17.451Z,27.40
2023-01-20T12:49:50.762Z,29.65
2023-01-20T12:52:30.529Z,29.75
2023-01-20T12:55:09.280Z,28.63
2023-01-20T12:57:58.245Z,35.20
2023-01-20T13:00:59.451Z,29.98
2023-01-20T13:03:53.864Z,30.92
2023-01-20T13:06:30.174Z,30.67
2023-01-20T13:09:29.137Z,27.20
2023-01-20T13:12:04.296Z,27.63
2023-01-20T13:14:41.285Z,29.88
2023-01-20T13:17:16.469Z,27.80
2023-01-20T13:19:46.617Z,29.70
2023-01-20T13:22:16.526Z,30.65
2023-01-20T13:24:45.456Z,28.45
2023-01-20T13:27:13.962Z,32.50
2023-01-20T13:30:03.385Z,27.73
2023-01-20T13:32:37.661Z,28.38
2023-01-20T13:35:22.762Z,28.85
2023-01-20T13:37:54.171Z,29.65
2023-01-20T13:40:32.858Z,25.45
2023-01-20T13:42:59.583Z,33.50
2023-01-20T13:45:27.606Z,23.75
2023-01-20T13:48:22.811Z,24.17
2023-01-20T13:50:50.394Z,27.25
2023-01-20T13:53:22.907Z,27.75
2023-01-20T13:56:28.440Z,23.77
2023-01-20T13:58:58.168Z,28.17
2023-01-20T14:01:25.677Z,30.33
2023-01-20T14:04:06.997Z,27.88
2023-01-20T14:06:35.859Z,29.40
2023-01-20T14:09:03.663Z,27.92
2023-01-20T14:11:31.360Z,26.40
2023-01-20T14:13:58.964Z,26.90
2023-01-20T14:16:30.793Z,24.75
2023-01-20T14:19:00.071Z,27.23
2023-01-20T14:21:29.364Z,26.92
2023-01-20T14:23:56.396Z,28.65
2023-01-20T14:26:28.224Z,26.77
2023-01-20T14:28:57.322Z,27.20
2023-01-20T14:31:45.633Z,25.42
2023-01-20T14:34:23.293Z,30.05
2023-01-20T14:36:50.838Z,28.08
2023-01-20T14:39:22.536Z,28.85
2023-01-20T14:41:56.960Z,33.78
2023-01-20T14:44:29.320Z,29.08
2023-01-20T14:46:57.971Z,32.35
2023-01-20T14:49:41.909Z,31.15
2023-01-20T14:52:12.450Z,35.25
2023-01-20T14:54:43.350Z,31.20
2023-01-20T14:57:25.334Z,35.08
2023-01-20T15:00:15.562Z,35.22
2023-01-20T15:02:45.927Z,33.30
2023-01-20T15:05:20.155Z,33.85
2023-01-20T15:07:47.017Z,31.05
2023-01-20T15:10:18.386Z,33.90
2023-01-20T15:12:47.949Z,31.50
2023-01-20T15:15:23.455Z,31.30
2023-01-20T15:18:08.876Z,31.80
2023-01-20T15:20:38.412Z,39.13
2023-01-20T15:23:13.980Z,33.92
2023-01-20T15:25:40.587Z,31.23
2023-01-20T15:28:20.048Z,31.02
2023-01-20T15:30:46.653Z,31.60
2023-01-20T15:33:13.262Z,29.17
2023-01-20T15:35:41.666Z,31.58
2023-01-20T15:38:11.948Z,30.40
2023-01-20T15:40:39.936Z,37.28
2023-01-20T15:43:18.210Z,32.03
2023-01-20T15:45:45.165Z,35.22
2023-01-20T15:48:17.554Z,32.72
2023-01-20T15:50:44.411Z,29.52
2023-01-20T15:53:12.647Z,32.90
2023-01-20T15:55:49.476Z,36.10
2023-01-20T15:58:27.829Z,33.42
2023-01-20T16:00:55.743Z,30.58
2023-01-20T16:03:23.600Z,32.80
2023-01-20T16:05:51.524Z,33.58
2023-01-20T16:08:20.595Z,32.83
2023-01-20T16:10:47.527Z,32.80
2023-01-20T16:13:14.559Z,31.10
2023-01-20T16:15:42.979Z,27.50
2023-01-20T16:18:14.585Z,33.90
2023-01-20T16:20:42.704Z,28.98
2023-01-20T16:23:09.290Z,33.75
2023-01-20T16:25:36.400Z,28.80
2023-01-20T16:28:11.704Z,31.40
2023-01-20T16:30:38.410Z,34.28
2023-01-20T16:33:15.150Z,34.45
2023-01-20T16:35:42.164Z,32.90
2023-01-20T16:38:12.750Z,33.63
2023-01-20T16:40:45.769Z,34.35
2023-01-20T16:43:12.716Z,32.42
2023-01-20T16:45:39.375Z,37.45
2023-01-20T16:48:07.139Z,33.20
2023-01-20T16:50:33.761Z,36.88
2023-01-20T16:53:00.431Z,28.58
2023-01-20T16:55:27.096Z,31.15
2023-01-20T16:57:57.471Z,31.42
2023-01-20T17:00:24.077Z,33.83
2023-01-20T17:02:52.420Z,32.45
2023-01-20T17:05:25.864Z,29.92
2023-01-20T17:07:57.508Z,30.83
2023-01-20T17:10:26.403Z,33.47
2023-01-20T17:12:53.572Z,33.38
2023-01-20T17:15:21.054Z,30.20
2023-01-20T17:17:49.141Z,33.33
2023-01-20T17:20:17.680Z,31.48
2023-01-20T17:22:44.610Z,32.33
2023-01-20T17:25:11.921Z,29.38
2023-01-20T17:27:39.196Z,32.13
2023-01-20T17:30:08.141Z,29.55
2023-01-20T17:32:35.617Z,30.25
2023-01-20T17:35:02.449Z,31.73
2023-01-20T17:37:29.032Z,30.25
2023-01-20T17:39:55.645Z,34.83
2023-01-20T17:42:22.248Z,31.38
2023-01-20T17:44:48.825Z,30.80
2023-01-20T17:47:15.910Z,30.80
2023-01-20T17:49:42.774Z,35.92
2023-01-20T17:52:09.395Z,32.42
2023-01-20T17:54:36.051Z,33.17
2023-01-20T17:57:02.806Z,32.60
2023-01-20T17:59:32.516Z,32.45
2023-01-20T18:02:00.095Z,35.95
2023-01-20T18:04:27.033Z,36.58
2023-01-20T18:06:53.673Z,31.80
2023-01-20T18:09:20.318Z,32.67
2023-01-20T18:11:46.900Z,35.83
2023-01-20T18:14:13.516Z,34.60
2023-01-20T18:16:41.700Z,38.33
2023-01-20T18:19:10.690Z,39.70
2023-01-20T18:21:37.818Z,35.40
2023-01-20T18:24:07.438Z,34.72
2023-01-20T18:26:35.288Z,40.58
2023-01-20T18:29:07.243Z,36.78
2023-01-20T18:31:34.902Z,39.08
2023-01-20T18:34:04.817Z,37.00
2023-01-20T18:36:37.012Z,39.90
2023-01-20T18:39:23.907Z,44.13
2023-01-20T18:41:51.734Z,43.97
2023-01-20T18:44:19.063Z,35.03
2023-01-20T18:46:45.630Z,42.47
2023-01-20T18:49:13.784Z,44.40
2023-01-20T18:51:44.291Z,52.35
2023-01-20T18:54:17.628Z,46.95
2023-01-20T18:56:44.580Z,48.92
2023-01-20T18:59:11.914Z,42.75
2023-01-20T19:01:40.165Z,43.45
2023-01-20T19:04:10.080Z,43.92
2023-01-20T19:06:39.122Z,42.80
2023-01-20T19:09:07.677Z,38.05
2023-01-20T19:11:39.595Z,40.83
2023-01-20T19:14:08.155Z,38.35
2023-01-20T19:16:37.921Z,48.55
2023-01-20T19:19:07.346Z,45.08
2023-01-20T19:21:36.416Z,45.42
2023-01-20T19:24:06.118Z,41.72
2023-01-20T19:26:35.632Z,40.55
2023-01-20T19:29:05.713Z,45.80
2023-01-20T19:31:34.424Z,44.58
2023-01-20T19:34:01.071Z,50.25
2023-01-20T19:36:27.818Z,44.90
2023-01-20T19:38:54.644Z,48.50
2023-01-20T19:41:23.653Z,47.85
2023-01-20T19:43:57.513Z,44.13
2023-01-20T19:46:29.387Z,42.55
2023-01-20T19:48:57.965Z,39.20
2023-01-20T19:51:25.252Z,38.78
2023-01-20T19:53:58.069Z,42.05
2023-01-20T19:56:26.967Z,39.15
2023-01-20T19:58:54.414Z,37.65
2023-01-20T20:01:23.061Z,42.28
2023-01-20T20:03:50.683Z,35.65
2023-01-20T20:06:20.334Z,34.58
2023-01-20T20:08:47.106Z,37.25
2023-01-20T20:11:13.768Z,35.42
2023-01-20T20:13:40.336Z,35.60
2023-01-20T20:16:08.044Z,36.58
2023-01-20T20:18:34.684Z,41.97
2023-01-20T20:21:01.276Z,36.05
2023-01-20T20:23:27.886Z,35.42
2023-01-20T20:25:57.819Z,36.67
2023-01-20T20:28:28.528Z,38.08
2023-01-20T20:30:55.594Z,41.28
2023-01-20T20:33:23.634Z,38.53
2023-01-20T20:35:50.530Z,39.55
2023-01-20T20:38:18.122Z,36.70
2023-01-20T20:40:44.866Z,36.55
2023-01-20T20:43:11.601Z,36.33
2023-01-20T20:45:38.183Z,38.83
2023-01-20T20:48:05.294Z,37.05
2023-01-20T20:50:32.128Z,38.13
2023-01-20T20:52:59.202Z,37.15
2023-01-20T20:55:26.383Z,35.08
2023-01-20T20:57:53.644Z,31.73
2023-01-20T21:00:23.629Z,34.97
2023-01-20T21:02:50.405Z,34.03
2023-01-20T21:05:18.991Z,31.92
2023-01-20T21:07:45.910Z,33.97
2023-01-20T21:10:15.825Z,30.77
2023-01-20T21:12:43.906Z,31.70
2023-01-20T21:15:11.523Z,37.72
2023-01-20T21:17:38.723Z,32.33
2023-01-20T21:20:06.374Z,39.28
2023-01-20T21:22:33.839Z,33.35
2023-01-20T21:25:00.391Z,34.78
2023-01-20T21:27:27.205Z,31.20
2023-01-20T21:29:54.798Z,31.45
2023-01-20T21:32:21.398Z,33.28
2023-01-20T21:34:47.978Z,32.85
2023-01-20T21:37:15.559Z,30.92
2023-01-20T21:39:42.118Z,33.85
2023-01-20T21:42:09.233Z,35.40
2023-01-20T21:44:36.547Z,32.78
2023-01-20T21:47:10.561Z,27.08
2023-01-20T21:49:55.724Z,30.25
2023-01-20T21:52:42.035Z,35.75
2023-01-20T21:55:22.672Z,29.65
2023-01-20T21:57:51.290Z,28.70
2023-01-20T22:00:18.697Z,35.63
2023-01-20T22:02:45.482Z,28.92
2023-01-20T22:05:13.327Z,30.73
2023-01-20T22:07:41.039Z,27.55
2023-01-20T22:10:07.985Z,28.42
2023-01-20T22:12:35.669Z,27.58
2023-01-20T22:15:03.625Z,31.92
2023-01-20T22:17:30.759Z,27.58
2023-01-20T22:19:57.338Z,31.77
2023-01-20T22:22:23.996Z,25.83
2023-01-20T22:24:50.949Z,25.42
2023-01-20T22:27:17.612Z,24.65
2023-01-20T22:29:44.175Z,26.60
2023-01-20T22:32:10.807Z,25.92
2023-01-20T22:34:37.388Z,26.55
2023-01-20T22:37:04.203Z,33.92
2023-01-20T22:39:30.902Z,26.92
2023-01-20T22:41:57.464Z,27.98
2023-01-20T22:44:24.070Z,26.65
2023-01-20T22:46:50.704Z,28.30
2023-01-20T22:49:17.356Z,26.50
2023-01-20T22:51:44.447Z,28.45
2023-01-20T22:54:11.364Z,31.48
2023-01-20T22:56:39.157Z,22.70
2023-01-20T22:59:06.191Z,25.85
2023-01-20T23:01:35.380Z,23.13
2023-01-20T23:04:04.189Z,24.92
2023-01-20T23:06:36.299Z,23.25
2023-01-20T23:09:06.838Z,30.17
2023-01-20T23:11:34.092Z,24.73
2023-01-20T23:14:00.672Z,25.52
2023-01-20T23:16:27.407Z,22.35
2023-01-20T23:18:53.993Z,26.80
2023-01-20T23:21:20.994Z,24.00
2023-01-20T23:23:54.881Z,24.30
2023-01-20T23:26:23.661Z,24.05
2023-01-20T23:28:50.679Z,23.38
2023-01-20T23:31:17.741Z,22.95
2023-01-20T23:33:44.934Z,25.23
2023-01-20T23:36:19.899Z,21.77
2023-01-20T23:38:46.652Z,24.85
2023-01-20T23:41:13.855Z,22.15
2023-01-20T23:43:41.108Z,25.58
2023-01-20T23:46:08.194Z,22.17
2023-01-20T23:48:35.255Z,21.40
2023-01-20T23:51:02.734Z,23.55
2023-01-20T23:53:31.346Z,23.70
2023-01-20T23:56:02.226Z,24.17
2023-01-20T23:58:28.855Z,24.35
